Time;durP1;ratioP1;P1;durP2;ratioP2;P2;SDS_P1;SDS_P2;PMS_P1;PMS_P2;Temp;Humidity;BMP_temperature;BMP_pressure;BME280_temperature;BME280_humidity;BME280_pressure;Samples;Min_cycle;Max_cycle;Signal;HPM_P1;HPM_P2
2022/06/21 00:02:23;;;;;;;8.65;2.55;;;;;;;13.23;90.41;101632.34;5068265;28;20515;-59
2022/06/21 00:04:53;;;;;;;7.05;2.80;;;;;;;13.14;90.60;101635.56;5063244;28;20471;-50
2022/06/21 00:07:26;;;;;;;6.05;2.33;;;;;;;13.09;91.09;101632.34;5064899;28;20381;-51
2022/06/21 00:09:55;;;;;;;8.48;2.72;;;;;;;13.09;91.24;101635.00;5064346;28;20048;-48
2022/06/21 00:12:24;;;;;;;10.75;2.88;;;;;;;13.17;90.84;101633.59;5069193;28;20048;-50
2022/06/21 00:14:52;;;;;;;8.05;2.50;;;;;;;13.02;91.95;101637.22;5068594;28;20032;-50
2022/06/21 00:17:22;;;;;;;10.98;3.20;;;;;;;12.91;91.92;101632.59;5069181;28;20060;-59
2022/06/21 00:19:51;;;;;;;6.03;2.33;;;;;;;12.98;92.13;101623.34;5070338;28;20091;-48
2022/06/21 00:22:21;;;;;;;7.32;2.50;;;;;;;12.81;92.45;101627.03;5066225;28;20396;-49
2022/06/21 00:24:51;;;;;;;7.57;2.72;;;;;;;12.74;92.68;101632.78;5066054;28;20097;-51
2022/06/21 00:27:22;;;;;;;8.23;2.70;;;;;;;12.75;92.98;101616.00;5066938;28;21530;-49
2022/06/21 00:29:50;;;;;;;6.53;2.78;;;;;;;12.72;92.94;101610.91;5069214;28;20037;-58
2022/06/21 00:32:20;;;;;;;8.95;2.92;;;;;;;12.75;92.80;101610.72;5056942;28;20373;-58
2022/06/21 00:34:49;;;;;;;5.95;2.80;;;;;;;12.63;93.47;101617.63;5071948;28;20075;-52
2022/06/21 00:37:21;;;;;;;7.53;2.55;;;;;;;12.49;94.62;101615.84;5074636;28;20044;-50
2022/06/21 00:39:51;;;;;;;8.35;3.38;;;;;;;12.43;94.99;101609.13;5074769;28;20054;-47
2022/06/21 00:42:26;;;;;;;7.13;2.60;;;;;;;12.48;94.50;101620.25;5074831;28;20569;-58
2022/06/21 00:45:05;;;;;;;8.10;2.83;;;;;;;12.49;94.50;101616.69;5074711;28;20053;-52
2022/06/21 00:47:39;;;;;;;9.32;2.75;;;;;;;12.40;94.97;101614.59;5074483;28;20044;-59
2022/06/21 00:50:18;;;;;;;8.73;3.00;;;;;;;12.40;95.15;101617.22;5073433;28;20118;-58
2022/06/21 00:52:51;;;;;;;7.25;2.72;;;;;;;12.41;95.09;101618.09;5074273;28;20110;-58
2022/06/21 00:55:34;;;;;;;9.43;2.92;;;;;;;12.37;95.36;101612.16;5054894;28;20091;-58
2022/06/21 00:58:02;;;;;;;9.57;3.40;;;;;;;12.29;95.45;101606.50;5058705;28;20040;-51
2022/06/21 01:00:34;;;;;;;8.05;2.90;;;;;;;12.32;95.80;101603.66;5074338;28;20071;-59
2022/06/21 01:03:07;;;;;;;8.27;3.20;;;;;;;12.34;95.76;101607.91;5058744;28;20467;-59
2022/06/21 01:05:39;;;;;;;8.50;3.00;;;;;;;12.30;96.60;101611.66;5074150;28;20094;-49
2022/06/21 01:08:09;;;;;;;9.55;3.05;;;;;;;12.36;96.67;101614.88;5072184;28;20048;-58
2022/06/21 01:10:40;;;;;;;8.88;3.22;;;;;;;12.34;96.52;101614.97;5073914;28;20052;-49
2022/06/21 01:13:12;;;;;;;7.93;2.70;;;;;;;12.23;97.44;101618.25;5073535;28;20462;-51
2022/06/21 01:15:44;;;;;;;9.43;2.78;;;;;;;12.15;96.90;101613.44;5071278;28;20390;-58
2022/06/21 01:18:15;;;;;;;8.23;3.10;;;;;;;12.10;97.65;101604.94;5060064;28;20094;-51
2022/06/21 01:20:48;;;;;;;7.60;2.70;;;;;;;12.08;98.55;101606.84;5072601;28;20051;-59
2022/06/21 01:23:30;;;;;;;12.45;3.47;;;;;;;12.07;97.85;101605.13;5069138;28;20153;-59
2022/06/21 01:26:16;;;;;;;9.23;3.13;;;;;;;12.05;98.17;101593.81;5071700;28;20052;-59
2022/06/21 01:28:48;;;;;;;8.02;3.20;;;;;;;12.02;97.72;101585.25;5073535;28;20036;-59
2022/06/21 01:31:16;;;;;;;10.70;3.60;;;;;;;11.98;98.67;101582.81;5072552;28;20106;-47
2022/06/21 01:33:44;;;;;;;6.93;2.80;;;;;;;11.98;98.71;101585.44;5073557;28;20483;-58
2022/06/21 01:36:18;;;;;;;9.65;3.70;;;;;;;11.96;99.17;101591.75;5073653;28;20053;-59
2022/06/21 01:38:55;;;;;;;8.88;2.83;;;;;;;11.87;98.47;101595.72;5073744;28;20063;-50
2022/06/21 01:41:28;;;;;;;6.45;2.88;;;;;;;11.79;99.17;101590.91;5071860;28;20063;-53
2022/06/21 01:44:02;;;;;;;10.18;4.20;;;;;;;11.86;98.84;101591.38;5069684;28;20106;-52
2022/06/21 01:46:33;;;;;;;8.68;2.90;;;;;;;11.84;98.93;101588.84;5072054;28;20049;-59
2022/06/21 01:49:07;;;;;;;9.13;3.50;;;;;;;11.76;99.99;101579.69;5072899;28;20072;-51
2022/06/21 01:51:41;;;;;;;6.40;3.17;;;;;;;11.69;100.00;101589.75;5069630;28;20052;-51
2022/06/21 01:54:12;;;;;;;7.28;3.20;;;;;;;11.65;100.00;101589.06;5071429;28;20048;-58
2022/06/21 01:56:41;;;;;;;7.55;3.28;;;;;;;11.63;100.00;101577.78;5073455;28;20222;-58
2022/06/21 01:59:14;;;;;;;7.40;3.40;;;;;;;11.68;100.00;101566.97;5069658;28;20460;-59
2022/06/21 02:01:45;;;;;;;;;;;;;;;11.60;100.00;101570.06;5068298;28;20231;-53
2022/06/21 02:04:17;;;;;;;9.18;3.20;;;;;;;11.54;100.00;101564.28;5072984;28;19927;-60
2022/06/21 02:06:47;;;;;;;7.30;3.47;;;;;;;11.46;100.00;101578.72;5072459;28;20122;-53
2022/06/21 02:09:21;;;;;;;10.98;3.58;;;;;;;11.43;100.00;101571.00;5072759;28;20132;-52
2022/06/21 02:11:54;;;;;;;9.02;3.22;;;;;;;11.52;100.00;101574.94;5071874;28;20049;-52
2022/06/21 02:14:30;;;;;;;8.82;3.40;;;;;;;11.56;100.00;101563.28;5070135;28;20037;-59
2022/06/21 02:17:07;;;;;;;8.13;3.70;;;;;;;11.50;100.00;101566.25;5068832;28;20131;-58
2022/06/21 02:19:39;;;;;;;9.32;3.72;;;;;;;11.39;100.00;101572.13;5071024;28;20106;-50
2022/06/21 02:22:13;;;;;;;8.35;3.88;;;;;;;11.35;100.00;101575.88;5069639;28;20040;-50
2022/06/21 02:24:41;;;;;;;9.52;4.15;;;;;;;11.47;100.00;101575.16;5067544;28;20048;-59
2022/06/21 02:27:11;;;;;;;8.43;3.70;;;;;;;11.48;100.00;101576.03;5069086;28;20127;-47
2022/06/21 02:29:43;;;;;;;9.77;3.40;;;;;;;11.43;100.00;101578.09;5071347;28;20089;-49
2022/06/21 02:32:23;;;;;;;9.68;3.40;;;;;;;11.41;100.00;101572.91;5069555;28;20048;-58
2022/06/21 02:34:56;;;;;;;9.68;3.88;;;;;;;11.28;100.00;101574.53;5066397;28;20500;-58
2022/06/21 02:37:26;;;;;;;12.23;4.50;;;;;;;11.29;100.00;101576.25;5070685;28;20513;-57
2022/06/21 02:39:55;;;;;;;8.45;3.70;;;;;;;11.24;100.00;101579.13;5069687;28;20501;-58
2022/06/21 02:42:29;;;;;;;9.55;3.45;;;;;;;11.13;100.00;101589.41;5071073;28;20135;-59
2022/06/21 02:45:03;;;;;;;9.13;3.95;;;;;;;11.07;100.00;101587.97;5070883;28;20040;-58
2022/06/21 02:47:40;;;;;;;7.72;3.40;;;;;;;11.18;100.00;101595.28;5070841;28;20044;-59
2022/06/21 02:50:32;;;;;;;7.15;2.92;;;;;;;11.09;100.00;101593.97;5071092;28;20387;-58
2022/06/21 02:53:02;;;;;;;9.05;3.65;;;;;;;11.12;100.00;101592.97;5066934;28;20052;-58
2022/06/21 02:55:39;;;;;;;8.15;3.40;;;;;;;11.01;100.00;101593.56;5065411;28;20060;-52
2022/06/21 02:58:15;;;;;;;8.18;3.22;;;;;;;11.01;100.00;101596.19;5068217;28;20045;-49
2022/06/21 03:00:46;;;;;;;8.40;3.35;;;;;;;10.98;100.00;101591.94;5069506;28;20040;-59
2022/06/21 03:03:18;;;;;;;10.45;3.67;;;;;;;10.89;100.00;101587.16;5067910;28;20074;-49
2022/06/21 03:05:50;;;;;;;10.70;3.85;;;;;;;10.97;100.00;101579.69;5067716;28;20503;-53
2022/06/21 03:08:19;;;;;;;9.45;3.63;;;;;;;10.90;100.00;101575.72;5067574;28;20060;-59
2022/06/21 03:10:49;;;;;;;10.50;3.30;;;;;;;10.86;100.00;101574.19;5071112;28;20483;-59
2022/06/21 03:13:21;;;;;;;10.18;3.75;;;;;;;10.83;100.00;101569.09;5068695;28;20036;-53
2022/06/21 03:15:54;;;;;;;7.77;3.33;;;;;;;10.88;100.00;101571.47;5066272;28;20048;-52
2022/06/21 03:18:25;;;;;;;12.02;3.38;;;;;;;10.84;100.00;101557.66;5067670;28;20040;-51
2022/06/21 03:20:54;;;;;;;7.88;3.55;;;;;;;10.89;100.00;101552.97;5070797;28;20032;-53
2022/06/21 03:23:23;;;;;;;9.82;3.55;;;;;;;10.88;100.00;101553.06;5069517;28;20048;-59
2022/06/21 03:25:55;;;;;;;11.27;3.78;;;;;;;10.86;100.00;101555.78;5066861;28;20037;-59
2022/06/21 03:28:30;;;;;;;10.13;4.28;;;;;;;10.84;100.00;101549.75;5068658;28;20056;-53
2022/06/21 03:31:13;;;;;;;8.13;3.88;;;;;;;10.86;100.00;101547.03;5069056;28;20060;-54
2022/06/21 03:33:42;;;;;;;;;;;;;;;10.82;100.00;101547.22;5071847;28;20044;-57
2022/06/21 03:36:13;;;;;;;12.15;4.10;;;;;;;10.81;100.00;101545.50;5067760;28;19936;-58
2022/06/21 03:38:47;;;;;;;12.30;4.65;;;;;;;10.81;100.00;101534.13;5069944;28;20044;-58
2022/06/21 03:44:10;;;;;;;11.27;4.30;;;;;;;10.79;100.00;101538.63;5068008;28;20051;-58
2022/06/21 03:46:45;;;;;;;13.02;5.32;;;;;;;10.80;100.00;101529.81;5067526;28;20515;-57
2022/06/21 03:49:24;;;;;;;9.65;4.95;;;;;;;10.79;100.00;101528.09;5066764;28;20514;-59
2022/06/21 03:51:54;;;;;;;11.77;5.18;;;;;;;10.70;100.00;101534.69;5069778;28;20048;-52
2022/06/21 03:54:30;;;;;;;8.48;4.40;;;;;;;10.74;100.00;101535.41;5069556;28;20041;-57
2022/06/21 03:57:02;;;;;;;8.43;4.20;;;;;;;10.83;100.00;101541.00;5064529;28;20053;-58
2022/06/21 03:59:38;;;;;;;8.75;4.10;;;;;;;10.85;100.00;101556.69;5066302;28;20348;-58
2022/06/21 04:02:14;;;;;;;7.90;3.97;;;;;;;10.82;100.00;101559.50;5069952;28;20044;-59
2022/06/21 04:04:49;;;;;;;10.90;4.65;;;;;;;10.84;100.00;101560.28;5069660;28;20053;-60
2022/06/21 04:07:23;;;;;;;8.18;4.22;;;;;;;10.86;100.00;101555.78;5068098;28;20077;-49
2022/06/21 04:09:58;;;;;;;10.43;4.82;;;;;;;10.91;100.00;101561.63;5070062;28;20052;-58
2022/06/21 04:12:34;;;;;;;11.38;4.68;;;;;;;10.83;100.00;101551.53;5068617;28;20499;-58
2022/06/21 04:15:09;;;;;;;8.25;3.90;;;;;;;10.92;100.00;101551.94;5067199;28;20040;-59
2022/06/21 04:17:45;;;;;;;6.82;4.00;;;;;;;10.93;100.00;101562.38;5065489;28;20045;-57
2022/06/21 04:20:18;;;;;;;9.90;4.32;;;;;;;10.98;100.00;101565.63;5066745;28;20059;-58
2022/06/21 04:22:54;;;;;;;9.02;4.05;;;;;;;11.07;100.00;101560.78;5067750;28;20537;-58
2022/06/21 04:25:30;;;;;;;13.30;4.20;;;;;;;11.05;100.00;101554.75;5069923;28;20715;-47
2022/06/21 04:28:05;;;;;;;9.93;4.15;;;;;;;11.12;100.00;101545.56;5070380;28;20488;-52
2022/06/21 04:30:37;;;;;;;9.60;4.32;;;;;;;11.14;100.00;101541.09;5067367;28;20052;-53
2022/06/21 04:33:11;;;;;;;9.70;4.57;;;;;;;11.10;100.00;101539.56;5067118;28;20499;-49
2022/06/21 04:35:46;;;;;;;11.85;4.82;;;;;;;11.13;100.00;101556.00;5067553;28;20060;-53
2022/06/21 04:38:20;;;;;;;10.85;5.30;;;;;;;11.17;100.00;101564.59;5069121;28;20048;-53
2022/06/21 04:40:56;;;;;;;7.85;4.55;;;;;;;11.11;100.00;101562.31;5065346;28;20529;-59
2022/06/21 04:43:30;;;;;;;9.68;5.00;;;;;;;11.18;100.00;101568.94;5067668;28;20051;-59
2022/06/21 04:46:03;;;;;;;12.90;5.55;;;;;;;11.25;100.00;101556.28;5072810;28;20502;-59
2022/06/21 04:48:40;;;;;;;10.40;4.90;;;;;;;11.27;100.00;101551.75;5073228;28;20036;-58
2022/06/21 04:51:13;;;;;;;11.38;5.57;;;;;;;11.30;100.00;101551.56;5071395;28;20037;-58
2022/06/21 04:53:50;;;;;;;10.50;5.35;;;;;;;11.35;100.00;101560.06;5073085;28;20147;-59
2022/06/21 04:56:29;;;;;;;10.85;4.78;;;;;;;11.43;100.00;101555.22;5072681;28;20361;-59
2022/06/21 04:58:58;;;;;;;9.80;4.13;;;;;;;11.47;100.00;101555.91;5074327;28;20048;-57
2022/06/21 05:01:33;;;;;;;17.50;5.15;;;;;;;11.52;100.00;101551.22;5073316;28;20496;-58
2022/06/21 05:04:08;;;;;;;9.48;4.78;;;;;;;11.64;100.00;101542.59;5073274;28;20499;-58
2022/06/21 05:06:38;;;;;;;8.88;4.35;;;;;;;11.73;100.00;101529.81;5071055;28;20427;-53
2022/06/21 05:09:06;;;;;;;9.45;5.10;;;;;;;11.81;100.00;101519.66;5072352;28;20033;-59
2022/06/21 05:11:35;;;;;;;12.93;5.45;;;;;;;11.87;100.00;101514.00;5068916;28;20158;-58
2022/06/21 05:14:03;;;;;;;8.98;4.60;;;;;;;11.98;100.00;101516.91;5070912;28;20120;-58
2022/06/21 05:16:34;;;;;;;12.48;4.03;;;;;;;12.05;100.00;101522.63;5072951;28;20486;-59
2022/06/21 05:19:15;;;;;;;10.98;3.95;;;;;;;12.15;100.00;101510.59;5071006;28;20518;-58
2022/06/21 05:21:49;;;;;;;16.10;7.53;;;;;;;12.25;100.00;101502.13;5072890;28;20041;-49
2022/06/21 05:24:17;;;;;;;15.90;10.48;;;;;;;12.29;100.00;101501.00;5072999;28;20055;-59
2022/06/21 05:26:51;;;;;;;15.75;7.47;;;;;;;12.42;100.00;101501.06;5072885;28;20071;-58
2022/06/21 05:29:27;;;;;;;13.45;5.55;;;;;;;12.48;100.00;101503.31;5072715;28;20102;-58
2022/06/21 05:32:01;;;;;;;12.30;4.43;;;;;;;12.62;100.00;101508.56;5071998;28;20727;-59
2022/06/21 05:34:35;;;;;;;11.77;3.83;;;;;;;12.77;100.00;101503.28;5069133;28;20678;-53
2022/06/21 05:37:13;;;;;;;9.57;3.47;;;;;;;12.87;100.00;101508.81;5071483;28;20041;-58
2022/06/21 05:39:44;;;;;;;13.13;3.78;;;;;;;13.00;100.00;101507.91;5071988;28;20101;-59
2022/06/21 05:42:16;;;;;;;7.78;3.58;;;;;;;13.09;100.00;101509.13;5072749;28;20040;-59
2022/06/21 05:44:49;;;;;;;11.57;3.80;;;;;;;13.20;100.00;101505.78;5070494;28;20056;-58
2022/06/21 05:47:22;;;;;;;8.20;3.00;;;;;;;13.33;100.00;101501.38;5066354;28;20048;-58
2022/06/21 05:49:53;;;;;;;8.90;2.78;;;;;;;13.51;100.00;101493.19;5070524;28;20040;-57
2022/06/21 05:52:25;;;;;;;9.80;3.20;;;;;;;13.62;100.00;101495.09;5072072;28;20044;-51
2022/06/21 05:54:58;;;;;;;10.45;2.92;;;;;;;13.76;100.00;101500.31;5072708;28;20476;-58
2022/06/21 05:57:35;;;;;;;9.73;3.00;;;;;;;13.97;100.00;101505.91;5072157;28;20063;-51
2022/06/21 06:00:05;;;;;;;9.75;2.95;;;;;;;14.10;99.08;101515.66;5070687;28;20048;-51
2022/06/21 06:02:40;;;;;;;8.20;2.38;;;;;;;14.16;95.99;101510.75;5070005;28;20048;-49
2022/06/21 06:05:16;;;;;;;6.65;2.40;;;;;;;14.30;94.56;101515.09;5069804;28;20060;-49
2022/06/21 06:07:50;;;;;;;9.20;2.40;;;;;;;14.31;93.29;101521.25;5070963;28;20044;-53
2022/06/21 06:10:21;;;;;;;10.90;2.67;;;;;;;14.43;93.41;101515.06;5072468;28;20048;-53
2022/06/21 06:12:52;;;;;;;8.88;2.95;;;;;;;14.53;92.97;101513.47;5073333;28;20060;-59
2022/06/21 06:15:26;;;;;;;9.73;3.65;;;;;;;14.65;91.13;101506.47;5067198;28;20051;-51
2022/06/21 06:17:59;;;;;;;9.75;2.95;;;;;;;14.80;91.17;101512.47;5070136;28;20407;-53
2022/06/21 06:20:30;;;;;;;;;;;;;;;14.92;90.13;101516.03;5073428;28;20048;-58
2022/06/21 06:23:04;;;;;;;7.55;3.20;;;;;;;14.95;88.79;101521.09;5073037;28;19920;-58
2022/06/21 06:25:38;;;;;;;8.02;2.88;;;;;;;15.01;88.61;101522.44;5073061;28;20140;-52
2022/06/21 06:28:19;;;;;;;13.60;3.33;;;;;;;15.12;90.06;101524.31;5072736;28;20091;-53
2022/06/21 06:30:51;;;;;;;8.93;3.03;;;;;;;15.22;89.89;101520.03;5072998;28;20033;-59
2022/06/21 06:33:25;;;;;;;7.82;2.88;;;;;;;15.38;89.09;101528.53;5073037;28;20499;-52
2022/06/21 06:35:57;;;;;;;6.53;2.15;;;;;;;15.49;87.15;101533.03;5070331;28;20048;-49
2022/06/21 06:38:26;;;;;;;8.07;2.93;;;;;;;15.52;86.00;101532.78;5069287;28;20114;-52
2022/06/21 06:40:59;;;;;;;5.70;2.20;;;;;;;15.66;85.30;101536.22;5072550;28;20464;-51
2022/06/21 06:43:34;;;;;;;10.98;2.50;;;;;;;15.84;85.84;101531.34;5070994;28;20040;-58
2022/06/21 06:46:04;;;;;;;10.02;2.40;;;;;;;16.02;83.96;101537.03;5068163;28;20106;-58
2022/06/21 06:48:37;;;;;;;7.75;2.35;;;;;;;16.17;84.30;101537.63;5070822;28;20051;-48
2022/06/21 06:51:34;;;;;;;7.95;2.47;;;;;;;16.35;82.51;101533.56;5071947;28;20522;-59
2022/06/21 06:54:04;;;;;;;13.55;3.17;;;;;;;16.41;81.92;101556.13;5066968;28;20075;-45
2022/06/21 06:56:38;;;;;;;9.32;2.30;;;;;;;16.36;80.63;101564.44;5070930;28;20134;-53
2022/06/21 06:59:13;;;;;;;7.35;2.45;;;;;;;16.53;81.22;101555.13;5072496;28;20059;-60
2022/06/21 07:01:46;;;;;;;11.25;2.30;;;;;;;16.58;79.76;101560.09;5072249;28;20513;-60
2022/06/21 07:04:17;;;;;;;8.48;1.80;;;;;;;16.71;80.24;101571.44;5072547;28;20072;-50
2022/06/21 07:06:48;;;;;;;9.40;2.50;;;;;;;16.80;79.02;101569.03;5071869;28;20052;-52
2022/06/21 07:09:22;;;;;;;7.35;2.03;;;;;;;17.03;81.48;101578.66;5072486;28;20135;-52
2022/06/21 07:11:56;;;;;;;8.93;2.10;;;;;;;17.23;77.38;101584.16;5071843;28;20106;-58
2022/06/21 07:14:27;;;;;;;7.35;2.08;;;;;;;17.28;75.65;101583.78;5068206;28;20048;-59
2022/06/21 07:16:59;;;;;;;8.93;2.10;;;;;;;17.29;74.60;101580.13;5068903;28;20045;-51
2022/06/21 07:19:27;;;;;;;8.13;2.05;;;;;;;17.43;74.14;101584.34;5072346;28;20040;-53
2022/06/21 07:21:57;;;;;;;8.48;2.20;;;;;;;17.39;74.07;101587.22;5069355;28;20503;-59
2022/06/21 07:24:26;;;;;;;8.15;2.25;;;;;;;17.45;74.79;101582.38;5068753;28;20399;-53
2022/06/21 07:27:00;;;;;;;6.40;2.10;;;;;;;17.59;74.05;101571.47;5072151;28;20075;-53
2022/06/21 07:29:33;;;;;;;9.57;1.70;;;;;;;17.86;73.20;101575.41;5072298;28;20399;-51
2022/06/21 07:32:08;;;;;;;5.10;2.13;;;;;;;17.87;71.23;101574.44;5072200;28;20451;-59
2022/06/21 07:34:42;;;;;;;9.30;2.10;;;;;;;18.19;71.99;101581.53;5072076;28;20102;-59
2022/06/21 07:37:16;;;;;;;6.22;2.00;;;;;;;18.27;70.09;101583.53;5072262;28;20131;-59
2022/06/21 07:39:49;;;;;;;6.63;2.13;;;;;;;18.29;67.84;101578.91;5070509;28;20052;-51
2022/06/21 07:42:20;;;;;;;;;;;;;;;18.42;67.33;101577.72;5068011;28;20060;-53
2022/06/21 07:44:54;;;;;;;11.73;2.40;;;;;;;18.42;67.62;101579.56;5071329;28;20363;-51
2022/06/21 07:47:27;;;;;;;8.48;2.05;;;;;;;18.47;67.61;101573.81;5071739;28;20052;-59
2022/06/21 07:50:03;;;;;;;5.72;1.83;;;;;;;18.65;67.52;101579.34;5071856;28;20059;-58
2022/06/21 07:52:37;;;;;;;8.90;1.90;;;;;;;18.81;69.65;101578.84;5071872;28;20055;-59
2022/06/21 07:55:12;;;;;;;7.78;1.83;;;;;;;19.22;68.11;101584.97;5069065;28;20545;-53
2022/06/21 07:57:46;;;;;;;5.45;1.65;;;;;;;19.50;67.12;101574.47;5066713;28;20056;-59
2022/06/21 08:00:18;;;;;;;10.23;1.92;;;;;;;19.45;63.49;101564.22;5071804;28;20052;-51
2022/06/21 08:08:34;;;;;;;6.68;1.70;;;;;;;19.65;60.69;101554.38;5068632;28;20048;-52
2022/06/21 08:11:08;;;;;;;5.57;1.35;;;;;;;19.68;61.79;101553.25;5071879;28;20056;-50
2022/06/21 08:13:37;;;;;;;4.93;1.40;;;;;;;19.63;58.28;101550.16;5069228;28;20049;-51
2022/06/21 08:16:09;;;;;;;4.90;1.45;;;;;;;19.56;58.89;101544.53;5067300;28;20054;-52
2022/06/21 08:18:44;;;;;;;4.28;1.27;;;;;;;19.72;57.02;101550.13;5073812;28;20052;-59
2022/06/21 08:21:16;;;;;;;7.50;1.27;;;;;;;20.04;59.50;101538.31;5074212;28;20053;-60
2022/06/21 08:23:51;;;;;;;4.22;1.50;;;;;;;20.40;58.47;101530.44;5071827;28;20044;-59
2022/06/21 08:26:31;;;;;;;4.53;1.02;;;;;;;20.67;56.97;101533.22;5073457;28;20045;-59
2022/06/21 08:29:05;;;;;;;5.13;1.20;;;;;;;20.96;56.70;101537.63;5075300;28;20051;-59
2022/06/21 08:31:36;;;;;;;6.45;1.38;;;;;;;21.03;56.10;101536.84;5075256;28;20379;-54
2022/06/21 08:34:10;;;;;;;2.90;1.20;;;;;;;21.30;54.40;101532.41;5075304;28;20090;-52
2022/06/21 08:36:42;;;;;;;6.60;1.83;;;;;;;21.44;53.57;101523.81;5075144;28;20107;-52
2022/06/21 08:39:21;;;;;;;4.97;1.23;;;;;;;21.75;53.67;101527.94;5071862;28;20483;-59
2022/06/21 08:42:27;;;;;;;5.32;1.45;;;;;;;22.01;52.76;101511.84;5071731;28;20060;-59
2022/06/21 08:45:44;;;;;;;4.85;1.30;;;;;;;22.15;52.26;101518.44;5075020;28;20044;-58
2022/06/21 08:48:36;;;;;;;5.68;1.40;;;;;;;22.34;51.24;101511.16;5072891;28;20052;-57
2022/06/21 08:51:51;;;;;;;6.03;1.40;;;;;;;22.46;50.53;101501.88;5070337;28;20102;-59
2022/06/21 08:54:31;;;;;;;4.05;1.20;;;;;;;22.46;49.80;101496.50;5059321;28;20050;-59
2022/06/21 08:57:08;;;;;;;17.02;2.10;;;;;;;22.70;49.92;101489.53;5074716;28;20048;-58
2022/06/21 08:59:48;;;;;;;7.65;1.70;;;;;;;22.81;48.70;101491.91;5074532;28;20056;-59
2022/06/21 09:02:30;;;;;;;6.22;1.30;;;;;;;22.98;48.43;101486.56;5074515;28;20040;-59
2022/06/21 09:05:08;;;;;;;77.30;7.90;;;;;;;23.34;48.34;101497.84;5074841;28;20410;-59
2022/06/21 09:08:04;;;;;;;16.95;2.38;;;;;;;23.35;46.54;101499.50;5072366;28;20049;-59
2022/06/21 09:10:44;;;;;;;14.70;1.63;;;;;;;23.65;44.62;101494.44;5070139;28;20052;-59
2022/06/21 09:13:36;;;;;;;5.22;1.42;;;;;;;23.37;43.91;101496.66;5074020;28;20105;-61
2022/06/21 09:16:17;;;;;;;4.22;1.20;;;;;;;23.40;45.42;101488.28;5074133;28;20098;-59
2022/06/21 09:19:03;;;;;;;3.03;1.20;;;;;;;23.19;44.79;101484.28;5073797;28;20083;-60
2022/06/21 09:21:45;;;;;;;7.85;1.40;;;;;;;23.56;44.13;101484.72;5073989;28;20459;-60
2022/06/21 09:24:30;;;;;;;4.85;1.35;;;;;;;23.64;42.19;101482.00;5074120;28;20056;-60
2022/06/21 09:27:10;;;;;;;3.83;1.25;;;;;;;23.67;41.55;101470.09;5071441;28;20106;-60
2022/06/21 09:29:46;;;;;;;5.05;1.30;;;;;;;23.50;41.00;101475.50;5069490;28;20049;-48
2022/06/21 09:32:26;;;;;;;6.20;1.20;;;;;;;23.28;41.72;101483.22;5068234;28;20784;-60
2022/06/21 09:35:09;;;;;;;4.85;1.30;;;;;;;23.05;42.82;101475.00;5053989;28;20102;-50
2022/06/21 09:37:52;;;;;;;5.15;1.63;;;;;;;23.27;42.93;101467.31;5063726;28;20047;-54
2022/06/21 09:40:27;;;;;;;4.75;1.48;;;;;;;23.26;44.17;101462.94;5066185;28;20044;-50
2022/06/21 09:43:24;;;;;;;4.35;1.40;;;;;;;23.44;42.00;101460.09;5066956;28;20048;-60
2022/06/21 09:46:03;;;;;;;4.35;1.20;;;;;;;23.67;43.02;101457.53;5065323;28;20410;-60
2022/06/21 09:48:43;;;;;;;6.43;1.33;;;;;;;23.77;42.13;101447.41;5087197;28;20079;-58
2022/06/21 09:51:39;;;;;;;4.55;1.30;;;;;;;23.72;41.58;101448.94;5065219;28;20041;-58
2022/06/21 09:54:22;;;;;;;4.78;1.20;;;;;;;23.79;41.84;101447.25;5077965;28;20044;-48
2022/06/21 09:57:03;;;;;;;2.45;1.15;;;;;;;23.56;39.23;101452.50;5060953;28;20044;-52
2022/06/21 09:59:38;;;;;;;4.38;1.77;;;;;;;23.35;41.73;101448.53;5057119;28;20053;-52
2022/06/21 10:02:13;;;;;;;6.15;1.70;;;;;;;23.42;41.87;101441.47;5056884;28;20044;-49
2022/06/21 10:04:52;;;;;;;3.42;1.20;;;;;;;23.51;42.62;101434.25;5069120;28;20053;-50
2022/06/21 10:07:44;;;;;;;6.68;1.65;;;;;;;23.80;40.81;101433.66;5059480;28;20060;-59
2022/06/21 10:10:26;;;;;;;4.90;1.38;;;;;;;23.90;42.67;101446.06;5048664;28;20053;-59
2022/06/21 10:13:11;;;;;;;3.93;1.00;;;;;;;23.78;41.94;101438.38;5051876;28;20040;-59
2022/06/21 10:15:51;;;;;;;6.25;1.23;;;;;;;24.13;40.32;101424.66;5070766;28;20497;-48
2022/06/21 10:18:43;;;;;;;4.75;1.20;;;;;;;24.19;41.37;101423.97;5073057;28;20087;-52
2022/06/21 10:21:43;;;;;;;5.28;1.40;;;;;;;24.16;40.36;101423.47;5072973;28;20434;-58
2022/06/21 10:24:30;;;;;;;3.67;1.05;;;;;;;24.14;40.50;101424.47;5059973;28;20060;-59
2022/06/21 10:27:13;;;;;;;3.70;0.90;;;;;;;24.09;41.97;101416.13;5073050;28;20044;-59
2022/06/21 10:30:02;;;;;;;3.38;1.20;;;;;;;24.01;40.14;101399.19;5072586;28;20121;-59
2022/06/21 10:32:47;;;;;;;4.03;1.23;;;;;;;24.32;39.17;101404.56;5069019;28;20044;-59
2022/06/21 10:35:40;;;;;;;3.75;1.25;;;;;;;24.88;38.84;101406.22;5071557;28;20480;-58
2022/06/21 10:38:28;;;;;;;3.85;1.27;;;;;;;25.01;35.93;101402.91;5071698;28;20060;-50
2022/06/21 10:41:11;;;;;;;5.13;2.05;;;;;;;24.95;36.71;101401.78;5068247;28;20068;-58
2022/06/21 10:44:12;;;;;;;6.25;1.30;;;;;;;24.87;37.74;101401.84;5069841;28;20049;-59
2022/06/21 10:46:44;;;;;;;4.78;1.65;;;;;;;24.89;36.55;101399.81;5072784;28;20105;-48
2022/06/21 10:49:39;;;;;;;5.28;1.48;;;;;;;24.95;37.25;101399.09;5072654;28;20048;-51
2022/06/21 10:52:40;;;;;;;5.25;1.30;;;;;;;25.46;36.35;101407.34;5072649;28;20079;-50
2022/06/21 10:55:45;;;;;;;2.80;0.98;;;;;;;25.65;33.70;101411.34;5063786;28;20056;-50
2022/06/21 10:58:41;;;;;;;3.55;1.23;;;;;;;25.75;36.13;101410.25;5070841;28;20518;-52
2022/06/21 11:01:18;;;;;;;3.90;0.90;;;;;;;25.56;34.50;101404.38;5072493;28;20048;-50
2022/06/21 11:04:12;;;;;;;3.70;1.00;;;;;;;25.96;33.17;101409.50;5072563;28;20078;-49
2022/06/21 11:06:49;;;;;;;2.45;0.85;;;;;;;25.64;31.74;101408.84;5071095;28;20052;-59
2022/06/21 11:09:24;;;;;;;3.90;1.10;;;;;;;25.62;34.54;101413.59;5072087;28;20101;-59
2022/06/21 11:12:52;;;;;;;3.53;1.05;;;;;;;25.45;33.27;101413.75;5072364;28;20036;-59
2022/06/21 11:14:56;;;;;;;4.15;1.10;;;;;;;24.95;33.39;101410.69;5071031;28;20060;-58
2022/06/21 11:17:32;;;;;;;4.78;1.00;;;;;;;25.33;33.82;101411.69;5065729;28;20041;-50
2022/06/21 11:20:08;;;;;;;6.43;1.40;;;;;;;25.51;32.55;101397.88;5067703;28;20044;-50
2022/06/21 11:22:44;;;;;;;3.00;0.80;;;;;;;26.17;34.72;101392.56;5072217;28;20051;-58
2022/06/21 11:25:27;;;;;;;3.95;0.93;;;;;;;26.06;32.55;101396.56;5070216;28;20430;-49
2022/06/21 11:28:02;;;;;;;;;;;;;;;25.90;31.03;101394.88;5069166;28;20514;-59
2022/06/21 11:30:40;;;;;;;3.00;0.90;;;;;;;26.11;32.67;101399.53;5071843;28;20306;-59
2022/06/21 11:33:15;;;;;;;3.80;0.90;;;;;;;25.95;31.92;101400.56;5072125;28;20376;-51
2022/06/21 11:35:54;;;;;;;3.25;0.85;;;;;;;25.98;30.30;101388.56;5072109;28;20064;-52
2022/06/21 11:38:47;;;;;;;3.05;0.70;;;;;;;26.27;31.66;101400.31;5069025;28;20041;-51
2022/06/21 11:44:27;;;;;;;2.30;0.63;;;;;;;26.96;29.14;101396.25;5071975;28;20055;-52
2022/06/21 11:47:01;;;;;;;2.78;0.88;;;;;;;26.81;30.69;101397.16;5071919;28;20503;-49
2022/06/21 11:49:47;;;;;;;2.75;0.80;;;;;;;26.81;30.56;101401.72;5071657;28;20040;-53
2022/06/21 11:52:45;;;;;;;3.30;0.90;;;;;;;26.93;30.50;101407.44;5074292;28;20048;-58
2022/06/21 11:55:31;;;;;;;3.65;0.95;;;;;;;27.05;29.47;101397.75;5042533;28;20052;-57
2022/06/21 11:58:13;;;;;;;2.42;0.82;;;;;;;27.51;29.24;101401.00;5074490;28;20059;-58
2022/06/21 12:00:47;;;;;;;4.50;1.00;;;;;;;27.43;28.65;101393.88;5075856;28;20049;-58
2022/06/21 12:03:26;;;;;;;2.75;0.85;;;;;;;27.68;29.13;101388.84;5074414;28;20052;-58
2022/06/21 12:06:00;;;;;;;5.78;1.00;;;;;;;27.12;28.87;101395.13;5071932;28;20382;-52
2022/06/21 12:08:55;;;;;;;2.88;0.80;;;;;;;27.48;28.97;101394.94;5073374;28;20067;-59
2022/06/21 12:11:35;;;;;;;4.75;1.00;;;;;;;27.38;30.52;101390.94;5075800;28;20637;-53
2022/06/21 12:14:16;;;;;;;3.70;1.02;;;;;;;27.01;30.56;101380.31;5075385;28;20057;-58
2022/06/21 12:16:52;;;;;;;5.10;1.20;;;;;;;27.29;30.84;101382.13;5071714;28;20098;-51